Time;durP1;ratioP1;P1;durP2;ratioP2;P2;SDS_P1;SDS_P2;PMS_P1;PMS_P2;Temp;Humidity;BMP_temperature;BMP_pressure;BME280_temperature;BME280_humidity;BME280_pressure;Samples;Min_cycle;Max_cycle;Signal;HPM_P1;HPM_P2
2022/05/15 00:03:42;;;;;;;4.47;1.73;;;;;;;18.63;37.15;98186.78;10378732;28;20087;-73
2022/05/15 00:09:03;;;;;;;6.95;1.60;;;;;;;18.54;37.41;98194.91;10379623;28;20493;-73
2022/05/15 00:14:24;;;;;;;4.70;1.65;;;;;;;18.50;37.54;98191.91;10392967;28;20084;-74
2022/05/15 00:19:45;;;;;;;5.63;1.88;;;;;;;18.44;37.82;98188.09;10392685;28;20073;-74
2022/05/15 00:25:06;;;;;;;6.18;1.70;;;;;;;18.38;37.79;98193.47;10406868;28;20037;-73
2022/05/15 00:30:27;;;;;;;5.03;1.80;;;;;;;18.36;37.97;98193.38;10392295;28;20372;-73
2022/05/15 00:35:48;;;;;;;5.85;1.63;;;;;;;18.28;38.07;98197.31;10391944;28;20038;-73
2022/05/15 00:41:08;;;;;;;5.15;1.60;;;;;;;18.19;38.13;98197.59;10392315;28;20049;-74
2022/05/15 00:46:31;;;;;;;5.22;1.60;;;;;;;18.14;38.35;98190.28;10420149;28;20042;-74
2022/05/15 00:52:01;;;;;;;4.53;1.70;;;;;;;18.13;38.54;98188.81;10391736;28;20044;-75
2022/05/15 00:57:37;;;;;;;8.45;1.60;;;;;;;18.03;38.70;98195.47;10377983;28;20451;-74
2022/05/15 01:03:04;;;;;;;6.93;2.00;;;;;;;17.96;38.86;98187.38;10377091;28;20502;-73
2022/05/15 01:08:29;;;;;;;6.47;2.13;;;;;;;17.93;38.83;98191.47;10388747;28;20041;-77
2022/05/15 01:13:52;;;;;;;5.40;1.63;;;;;;;17.93;39.10;98183.00;10391055;28;20471;-73
2022/05/15 01:19:14;;;;;;;6.95;1.83;;;;;;;17.88;38.99;98181.34;10377190;28;20128;-73
2022/05/15 01:24:35;;;;;;;5.93;2.00;;;;;;;17.83;39.20;98180.44;10390388;28;20065;-74
2022/05/15 01:29:57;;;;;;;7.63;1.83;;;;;;;17.75;39.25;98191.34;10376650;28;20491;-75
2022/05/15 01:35:18;;;;;;;5.15;1.63;;;;;;;17.67;39.49;98183.22;10389965;28;20069;-75
2022/05/15 01:40:39;;;;;;;8.10;1.38;;;;;;;17.64;39.64;98192.22;10374693;28;20546;-75
2022/05/15 01:46:00;;;;;;;7.18;1.73;;;;;;;17.58;39.69;98194.75;10389661;28;20065;-76
2022/05/15 01:51:22;;;;;;;5.32;2.03;;;;;;;17.55;39.83;98193.91;10402594;28;20491;-74
2022/05/15 01:56:43;;;;;;;8.73;2.13;;;;;;;17.48;39.85;98197.13;10389550;28;20368;-75
2022/05/15 02:02:05;;;;;;;8.65;2.53;;;;;;;17.49;39.70;98187.28;10388508;28;20057;-74
2022/05/15 02:07:26;;;;;;;4.75;1.75;;;;;;;17.47;39.79;98190.75;10375034;28;20539;-75
2022/05/15 02:12:47;;;;;;;7.97;1.80;;;;;;;17.45;40.20;98199.09;10374602;28;20048;-75
2022/05/15 02:18:07;;;;;;;4.78;1.90;;;;;;;17.35;40.27;98196.50;10401788;28;20100;-74
2022/05/15 02:23:28;;;;;;;6.43;2.17;;;;;;;17.32;40.17;98188.59;10387540;28;20046;-76
2022/05/15 02:28:49;;;;;;;8.07;2.53;;;;;;;17.21;40.35;98187.38;10374111;28;20483;-76
2022/05/15 02:34:11;;;;;;;7.35;2.10;;;;;;;17.19;40.57;98189.38;10387629;28;20475;-75
2022/05/15 02:39:32;;;;;;;8.10;1.80;;;;;;;17.10;40.78;98188.97;10387557;28;20085;-78
2022/05/15 02:44:53;;;;;;;10.20;1.95;;;;;;;17.10;40.63;98193.88;10387788;28;20467;-76
2022/05/15 02:55:53;;;;;;;9.57;2.15;;;;;;;17.12;40.71;98191.88;10389369;28;20372;-76
2022/05/15 03:01:15;;;;;;;9.70;2.30;;;;;;;17.05;40.89;98198.56;10386627;28;20073;-76
2022/05/15 03:06:36;;;;;;;7.75;2.20;;;;;;;17.03;40.93;98201.31;10387361;28;20376;-76
2022/05/15 03:11:57;;;;;;;7.68;2.20;;;;;;;16.96;41.10;98199.53;10387516;28;20073;-75
2022/05/15 03:17:17;;;;;;;7.85;1.88;;;;;;;16.93;41.21;98202.91;10400006;28;20486;-77
2022/05/15 03:22:38;;;;;;;9.18;2.42;;;;;;;16.92;41.08;98210.63;10409927;28;20068;-75
2022/05/15 03:27:59;;;;;;;5.80;1.75;;;;;;;16.81;41.29;98215.03;10410018;28;20131;-75
2022/05/15 03:33:20;;;;;;;7.95;2.40;;;;;;;16.84;41.26;98205.31;10422864;28;20052;-76
2022/05/15 03:38:41;;;;;;;6.70;1.60;;;;;;;16.82;41.74;98219.31;10427725;28;20423;-77
2022/05/15 03:44:02;;;;;;;9.73;2.13;;;;;;;16.79;41.66;98217.75;10399752;28;20045;-76
2022/05/15 03:49:24;;;;;;;10.95;1.98;;;;;;;16.81;41.59;98220.66;10415151;28;20045;-76
2022/05/15 03:54:44;;;;;;;10.75;2.53;;;;;;;16.86;41.66;98208.22;10419597;28;20483;-80
2022/05/15 04:00:07;;;;;;;8.40;2.03;;;;;;;16.92;41.81;98215.53;10413505;28;20060;-79
2022/05/15 04:05:32;;;;;;;6.63;1.95;;;;;;;17.00;41.82;98230.03;10411794;28;20060;-76
2022/05/15 04:10:55;;;;;;;6.57;1.65;;;;;;;17.03;41.96;98225.97;10401047;28;20479;-76
2022/05/15 04:16:16;;;;;;;8.23;2.30;;;;;;;17.09;42.05;98231.91;10426947;28;20044;-78
2022/05/15 04:21:37;;;;;;;12.88;2.95;;;;;;;17.10;42.06;98234.09;10410268;28;20403;-77
2022/05/15 04:26:59;;;;;;;6.32;1.65;;;;;;;17.10;42.12;98234.09;10397257;28;20376;-77
2022/05/15 04:32:19;;;;;;;9.90;2.17;;;;;;;17.12;42.32;98242.66;10410520;28;20049;-75
2022/05/15 04:37:40;;;;;;;10.35;2.00;;;;;;;17.13;42.58;98237.75;10434401;28;20080;-72
2022/05/15 04:43:00;;;;;;;7.05;1.75;;;;;;;17.26;42.54;98242.63;10431602;28;20387;-72
2022/05/15 04:48:21;;;;;;;13.07;2.25;;;;;;;17.40;42.84;98246.16;10403608;28;20050;-73
2022/05/15 04:53:42;;;;;;;8.43;1.88;;;;;;;17.64;42.37;98246.56;10431242;28;20037;-73
2022/05/15 04:59:02;;;;;;;9.55;2.00;;;;;;;17.85;42.40;98250.38;10445783;28;20043;-73
2022/05/15 05:04:23;;;;;;;6.50;1.80;;;;;;;18.03;42.22;98251.97;10459630;28;20135;-73
2022/05/15 05:09:44;;;;;;;9.85;2.22;;;;;;;18.12;41.92;98260.81;10350523;28;20045;-73
2022/05/15 05:15:06;;;;;;;10.02;2.70;;;;;;;18.29;42.14;98265.84;10349847;28;20049;-73
2022/05/15 05:20:27;;;;;;;10.95;2.45;;;;;;;18.35;41.91;98274.63;10349625;28;20053;-74
2022/05/15 05:25:48;;;;;;;10.50;2.40;;;;;;;18.72;41.45;98274.19;10349355;28;20053;-73
2022/05/15 05:31:09;;;;;;;9.23;2.65;;;;;;;19.19;41.60;98267.66;10362835;28;20042;-73
2022/05/15 05:36:29;;;;;;;7.55;2.03;;;;;;;19.86;40.70;98278.19;10348947;28;20476;-73
2022/05/15 05:41:50;;;;;;;8.57;2.05;;;;;;;20.95;40.66;98292.22;10349065;28;20046;-74
2022/05/15 05:47:11;;;;;;;8.65;2.00;;;;;;;22.25;39.28;98297.25;10348841;28;20064;-74
2022/05/15 05:52:31;;;;;;;10.43;2.30;;;;;;;23.62;37.93;98289.63;10348741;28;20077;-78
2022/05/15 05:57:52;;;;;;;9.07;2.08;;;;;;;24.86;36.60;98297.41;10348512;28;20053;-79
2022/05/15 06:08:53;;;;;;;9.88;2.25;;;;;;;27.09;32.21;98317.38;10350382;28;20038;-75
2022/05/15 06:14:13;;;;;;;9.57;1.88;;;;;;;28.11;30.30;98312.59;10361703;28;20049;-78
2022/05/15 06:19:34;;;;;;;6.20;2.00;;;;;;;28.47;29.23;98309.25;10372014;28;20052;-80
2022/05/15 06:24:55;;;;;;;11.73;1.98;;;;;;;28.62;27.51;98307.16;10369913;28;20048;-78
2022/05/15 06:30:16;;;;;;;10.60;3.00;;;;;;;29.40;27.06;98308.16;10387527;28;20076;-77
2022/05/15 06:35:38;;;;;;;6.60;2.08;;;;;;;30.37;25.81;98311.03;10374874;28;20037;-77
2022/05/15 06:40:59;;;;;;;7.65;1.65;;;;;;;31.34;25.13;98321.47;10387663;28;20095;-77
2022/05/15 06:46:19;;;;;;;;;;;;;;;32.15;21.12;98308.63;10387279;28;20049;-77
2022/05/15 06:51:40;;;;;;;;;;;;;;;33.06;20.88;98320.63;10386822;28;19921;-77
2022/05/15 07:02:46;;;;;;;8.75;1.63;;;;;;;34.21;20.42;98314.53;10389332;28;20080;-83
2022/05/15 07:08:10;;;;;;;7.20;1.50;;;;;;;35.24;19.13;98313.97;10332875;28;20399;-81
2022/05/15 07:13:32;;;;;;;5.43;1.48;;;;;;;36.29;17.84;98330.31;10332944;28;20053;-82
2022/05/15 07:18:52;;;;;;;6.00;1.73;;;;;;;37.98;15.89;98322.44;10343455;28;20041;-82
2022/05/15 07:24:13;;;;;;;6.95;1.70;;;;;;;39.14;15.02;98330.00;10373108;28;20041;-83
2022/05/15 07:29:36;;;;;;;3.97;1.60;;;;;;;40.07;13.59;98325.56;10372684;28;20103;-81
2022/05/15 07:34:57;;;;;;;5.20;1.38;;;;;;;41.01;13.65;98339.00;10373467;28;20052;-83
2022/05/15 07:40:19;;;;;;;5.40;1.73;;;;;;;42.07;12.78;98328.78;10358995;28;20045;-87
2022/05/15 07:45:40;;;;;;;5.53;1.60;;;;;;;42.47;11.99;98334.13;10386665;28;20235;-85
2022/05/15 07:51:02;;;;;;;6.13;1.75;;;;;;;42.28;11.47;98328.50;10386663;28;20045;-83
2022/05/15 07:56:52;;;;;;;5.78;2.05;;;;;;;44.28;9.24;98326.97;10365603;28;20042;-80
2022/05/15 08:02:13;;;;;;;6.03;1.70;;;;;;;48.66;6.97;98323.41;10324035;28;20062;-82
2022/05/15 08:13:20;;;;;;;7.68;1.98;;;;;;;52.10;4.73;98308.72;10336277;28;20065;-79
2022/05/15 08:24:31;;;;;;;6.00;1.77;;;;;;;53.79;3.40;98315.50;10381577;28;20661;-84
2022/05/15 08:29:56;;;;;;;8.82;2.25;;;;;;;53.57;3.44;98295.25;10375835;28;20554;-85
2022/05/15 08:35:19;;;;;;;7.68;2.08;;;;;;;53.73;2.95;98304.84;10335323;28;20045;-86
2022/05/15 08:40:48;;;;;;;6.13;2.13;;;;;;;55.27;2.92;98297.03;10352362;28;20046;-86
2022/05/15 08:46:53;;;;;;;5.13;1.80;;;;;;;55.03;2.28;98297.38;10354285;28;20046;-84
2022/05/15 08:52:35;;;;;;;5.32;2.17;;;;;;;54.81;2.65;98288.44;10318941;28;20138;-85
2022/05/15 08:58:07;;;;;;;6.50;2.60;;;;;;;54.56;2.13;98299.28;10323632;28;20053;-84
2022/05/15 09:03:31;;;;;;;7.83;2.33;;;;;;;54.72;2.50;98296.19;10329565;28;20491;-81
2022/05/15 09:09:02;;;;;;;5.47;2.53;;;;;;;54.93;2.25;98289.47;10350423;28;20121;-82
2022/05/15 09:14:58;;;;;;;6.38;3.00;;;;;;;55.27;1.88;98287.34;10349984;28;20050;-82
2022/05/15 09:20:42;;;;;;;7.70;3.25;;;;;;;54.67;2.21;98289.25;10377851;28;20566;-82
2022/05/15 09:26:05;;;;;;;9.20;3.10;;;;;;;55.46;2.45;98283.78;10338568;28;20045;-82
2022/05/15 09:31:29;;;;;;;7.20;3.40;;;;;;;57.03;1.54;98278.22;10361922;28;20113;-79
2022/05/15 09:36:51;;;;;;;6.30;3.97;;;;;;;57.67;0.82;98281.22;10336089;28;20042;-78
2022/05/15 09:47:56;;;;;;;5.68;4.40;;;;;;;57.32;1.39;98267.28;10376468;28;20381;-78
2022/05/15 09:53:20;;;;;;;9.80;5.65;;;;;;;57.18;1.41;98274.28;10322327;28;20400;-78
2022/05/15 09:58:51;;;;;;;6.03;5.28;;;;;;;57.10;1.81;98275.91;10337864;28;20049;-77
2022/05/15 10:04:21;;;;;;;7.95;6.03;;;;;;;56.61;1.74;98269.53;10361446;28;20065;-77
2022/05/15 10:09:42;;;;;;;8.68;5.60;;;;;;;55.61;1.64;98273.94;10335392;28;20396;-76
2022/05/15 10:15:06;;;;;;;8.30;5.90;;;;;;;56.49;1.78;98267.91;10321094;28;20396;-78
2022/05/15 10:20:29;;;;;;;8.82;6.40;;;;;;;55.65;2.20;98258.56;10328254;28;20101;-78
2022/05/15 10:25:54;;;;;;;7.22;6.53;;;;;;;54.96;2.07;98257.06;10334847;28;20052;-77
2022/05/15 10:46:45;;;;;;;5.15;4.40;;;;;;;57.18;1.57;98238.97;10398268;28;20095;-77
2022/05/15 10:52:36;;;;;;;6.93;2.03;;;;;;;56.73;1.30;98237.44;10354829;28;20136;-77
2022/05/15 10:58:09;;;;;;;7.45;1.55;;;;;;;53.14;1.88;98239.84;10346865;28;20117;-77
2022/05/15 11:03:36;;;;;;;6.70;1.70;;;;;;;46.40;4.97;98233.69;10358644;28;20054;-76
2022/05/15 11:09:01;;;;;;;5.25;1.50;;;;;;;42.36;6.76;98218.81;10360085;28;20049;-75
2022/05/15 11:14:42;;;;;;;6.32;1.35;;;;;;;39.78;9.04;98215.00;10345907;28;20502;-78
2022/05/15 11:20:10;;;;;;;7.15;1.50;;;;;;;38.33;10.99;98209.00;10346450;28;20046;-78
2022/05/15 11:25:35;;;;;;;7.03;1.67;;;;;;;37.41;11.07;98207.81;10329546;28;20054;-77
2022/05/15 11:31:07;;;;;;;8.35;2.10;;;;;;;36.78;11.77;98190.13;10292876;28;20050;-77
2022/05/15 11:36:44;;;;;;;5.22;1.60;;;;;;;36.16;12.51;98193.38;10308967;28;20583;-78
2022/05/15 11:42:17;;;;;;;5.93;1.98;;;;;;;35.25;13.74;98196.44;10322639;28;20089;-78
2022/05/15 11:47:45;;;;;;;6.85;1.65;;;;;;;34.41;13.88;98175.09;10307536;28;20504;-79
2022/05/15 11:53:09;;;;;;;7.20;1.85;;;;;;;34.35;13.75;98189.66;10328694;28;20514;-77
2022/05/15 11:58:37;;;;;;;8.52;2.25;;;;;;;34.07;14.14;98188.09;10352751;28;20049;-76
2022/05/15 12:04:00;;;;;;;6.53;2.00;;;;;;;33.09;15.07;98173.81;10358331;28;20058;-78
2022/05/15 12:09:22;;;;;;;7.93;1.70;;;;;;;31.54;17.07;98170.63;10361787;28;20037;-77
2022/05/15 12:15:02;;;;;;;8.18;1.85;;;;;;;30.77;18.04;98160.38;10360243;28;20407;-76
2022/05/15 12:20:29;;;;;;;6.35;1.73;;;;;;;30.66;17.85;98161.19;10366949;28;20140;-76
2022/05/15 12:26:24;;;;;;;7.38;1.58;;;;;;;30.33;18.41;98152.69;10391563;28;20042;-79
2022/05/15 12:31:59;;;;;;;8.38;1.50;;;;;;;30.53;18.49;98159.81;10368341;28;20056;-78
2022/05/15 12:37:56;;;;;;;7.03;1.48;;;;;;;30.67;18.16;98153.97;10376248;28;20041;-78
2022/05/15 12:43:29;;;;;;;7.78;1.48;;;;;;;30.63;18.07;98151.81;10371489;28;20034;-76
2022/05/15 12:48:59;;;;;;;5.88;1.40;;;;;;;30.13;17.59;98141.28;10389124;28;20041;-75
2022/05/15 12:54:31;;;;;;;6.03;1.40;;;;;;;30.19;18.13;98135.47;10346890;28;20092;-76
2022/05/15 13:00:13;;;;;;;10.23;1.50;;;;;;;29.85;18.66;98134.16;10377801;28;20050;-75
2022/05/15 13:05:53;;;;;;;7.72;1.45;;;;;;;29.53;18.63;98125.59;10368761;28;20057;-78
2022/05/15 13:11:24;;;;;;;4.45;1.13;;;;;;;29.44;18.78;98127.03;10356684;28;20046;-74
2022/05/15 13:16:51;;;;;;;7.50;1.50;;;;;;;29.83;19.00;98121.94;10376134;28;20038;-75
2022/05/15 13:22:18;;;;;;;5.63;1.33;;;;;;;29.91;18.50;98127.63;10361051;28;20392;-74
2022/05/15 13:27:41;;;;;;;5.30;1.45;;;;;;;29.81;18.37;98128.38;10337221;28;20048;-74
2022/05/15 13:33:07;;;;;;;7.47;1.40;;;;;;;29.86;18.47;98118.31;10336432;28;20420;-76
2022/05/15 13:38:29;;;;;;;6.93;1.38;;;;;;;29.73;18.62;98119.81;10375103;28;20042;-73
2022/05/15 13:44:03;;;;;;;8.60;1.40;;;;;;;29.19;18.64;98115.53;10368514;28;20064;-76
2022/05/15 13:49:37;;;;;;;7.90;1.58;;;;;;;28.36;19.31;98101.06;10362769;28;20048;-76
2022/05/15 13:55:01;;;;;;;8.25;1.60;;;;;;;28.29;19.82;98102.50;10370281;28;20095;-76
2022/05/15 14:00:29;;;;;;;8.60;1.65;;;;;;;28.56;19.89;98094.66;10374053;28;20510;-75
2022/05/15 14:05:52;;;;;;;5.25;1.23;;;;;;;28.59;19.61;98098.97;10334919;28;20054;-75
2022/05/15 14:11:13;;;;;;;6.57;1.52;;;;;;;28.55;19.51;98096.81;10372701;28;20076;-75
2022/05/15 14:16:35;;;;;;;4.67;1.20;;;;;;;28.31;19.64;98088.88;10349794;28;20107;-75
2022/05/15 14:21:58;;;;;;;8.17;1.33;;;;;;;27.57;20.80;98090.66;10387933;28;20046;-76
2022/05/15 14:27:19;;;;;;;5.78;1.20;;;;;;;27.30;20.33;98077.59;10347240;28;20487;-75
2022/05/15 14:32:41;;;;;;;7.15;1.27;;;;;;;27.36;20.86;98080.50;10337820;28;20377;-79
2022/05/15 14:38:03;;;;;;;7.28;1.60;;;;;;;27.71;20.63;98077.88;10333393;28;20042;-78
2022/05/15 14:43:35;;;;;;;4.00;0.90;;;;;;;27.75;20.53;98072.16;10323365;28;20049;-79
2022/05/15 14:48:57;;;;;;;6.20;1.17;;;;;;;27.15;20.58;98076.06;10333984;28;20042;-76
2022/05/15 14:54:21;;;;;;;4.68;1.25;;;;;;;26.95;21.40;98071.59;10344097;28;20104;-75
2022/05/15 14:59:43;;;;;;;8.00;1.27;;;;;;;26.57;21.04;98066.28;10367850;28;20395;-75
2022/05/15 15:05:04;;;;;;;7.25;1.30;;;;;;;26.49;21.88;98064.06;10359487;28;20061;-74
2022/05/15 15:10:26;;;;;;;11.82;1.58;;;;;;;26.35;21.96;98055.31;10346184;28;20064;-74
2022/05/15 15:15:48;;;;;;;4.82;1.30;;;;;;;26.31;21.84;98046.66;10331964;28;20042;-75
2022/05/15 15:21:10;;;;;;;4.28;1.27;;;;;;;26.29;21.84;98046.66;10331766;28;20038;-75
2022/05/15 15:26:32;;;;;;;5.43;1.20;;;;;;;26.23;22.44;98046.59;10332735;28;20038;-78
2022/05/15 15:31:54;;;;;;;7.93;1.50;;;;;;;26.15;21.87;98047.25;10354837;28;20046;-77
2022/05/15 15:42:54;;;;;;;6.95;1.40;;;;;;;25.89;22.24;98041.94;10358262;28;20480;-76
2022/05/15 15:48:17;;;;;;;5.28;1.08;;;;;;;25.73;22.43;98041.75;10336872;28;20400;-74
2022/05/15 15:53:38;;;;;;;7.90;1.10;;;;;;;25.60;22.06;98023.69;10367387;28;20061;-76
2022/05/15 15:58:59;;;;;;;6.20;1.20;;;;;;;25.47;22.59;98029.94;10364108;28;20284;-78
2022/05/15 16:04:20;;;;;;;6.63;1.50;;;;;;;25.62;22.70;98023.72;10367777;28;20074;-75
2022/05/15 16:09:41;;;;;;;6.57;1.52;;;;;;;25.72;22.61;98016.72;10333491;28;20042;-78
2022/05/15 16:15:03;;;;;;;5.05;1.30;;;;;;;25.57;22.52;98015.78;10364204;28;20133;-76
2022/05/15 16:20:29;;;;;;;5.55;1.27;;;;;;;25.56;22.63;98014.34;10365473;28;20093;-75
2022/05/15 16:25:50;;;;;;;5.97;1.20;;;;;;;25.32;22.54;98012.63;10338763;28;20496;-76
2022/05/15 16:31:14;;;;;;;8.88;1.08;;;;;;;25.30;22.75;98003.31;10352114;28;20064;-73
2022/05/15 16:36:35;;;;;;;4.65;1.40;;;;;;;25.44;22.37;98003.47;10348081;28;20037;-74
2022/05/15 16:41:56;;;;;;;5.53;1.20;;;;;;;25.52;22.09;98006.44;10349541;28;20046;-76
2022/05/15 16:47:17;;;;;;;10.13;1.20;;;;;;;25.49;22.33;98009.97;10364535;28;20117;-77
2022/05/15 16:52:38;;;;;;;6.07;1.20;;;;;;;25.30;22.29;98012.59;10335015;28;20522;-79
2022/05/15 16:57:59;;;;;;;6.50;1.25;;;;;;;25.20;22.34;98001.03;10362470;28;20096;-79
2022/05/15 17:03:20;;;;;;;5.65;1.17;;;;;;;25.14;22.63;98012.34;10380282;28;20064;-75
2022/05/15 17:08:44;;;;;;;7.25;1.17;;;;;;;25.07;22.65;98013.69;10391378;28;20099;-75
2022/05/15 17:14:05;;;;;;;5.78;1.30;;;;;;;24.94;22.96;98006.34;10395380;28;20041;-76
2022/05/15 17:19:26;;;;;;;6.53;1.35;;;;;;;24.88;22.94;98004.09;10323137;28;20038;-79
2022/05/15 17:24:48;;;;;;;6.27;1.43;;;;;;;24.74;22.99;98006.75;10296540;28;20049;-79
2022/05/15 17:35:49;;;;;;;6.82;1.50;;;;;;;24.47;23.13;98006.31;10300503;28;20050;-82
2022/05/15 17:41:10;;;;;;;5.22;1.42;;;;;;;24.37;23.42;98008.28;10326418;28;20048;-77
2022/05/15 17:46:31;;;;;;;5.20;1.45;;;;;;;24.19;23.65;97997.94;10339674;28;20034;-79
2022/05/15 17:51:52;;;;;;;6.60;2.08;;;;;;;24.13;23.99;98011.41;10361900;28;20045;-85
2022/05/15 17:57:14;;;;;;;4.93;1.50;;;;;;;24.15;24.04;98006.44;10335289;28;20065;-79
2022/05/15 18:02:35;;;;;;;7.68;1.75;;;;;;;24.15;24.08;98002.88;10348644;28;20543;-74
2022/05/15 18:07:56;;;;;;;8.02;1.58;;;;;;;23.94;24.52;98013.91;10365607;28;20052;-75
2022/05/15 18:13:17;;;;;;;7.15;1.65;;;;;;;23.57;24.58;98011.72;10375204;28;20045;-78
2022/05/15 18:18:38;;;;;;;6.82;1.65;;;;;;;23.45;25.21;98000.78;10374919;28;20061;-75
2022/05/15 18:23:59;;;;;;;9.40;1.58;;;;;;;23.48;25.21;98010.81;10401920;28;20052;-76
2022/05/15 18:29:19;;;;;;;5.68;1.58;;;;;;;23.48;25.12;98007.97;10357744;28;20042;-77
2022/05/15 18:34:40;;;;;;;6.38;1.85;;;;;;;23.48;25.34;98012.94;10360456;28;20060;-75
2022/05/15 18:40:01;;;;;;;10.75;2.03;;;;;;;23.42;25.95;98016.38;10374421;28;20113;-77
2022/05/15 18:45:21;;;;;;;9.13;1.70;;;;;;;23.22;26.12;98024.47;10346755;28;20112;-79
2022/05/15 18:56:29;;;;;;;8.13;1.83;;;;;;;22.99;26.57;98032.53;10349020;28;20076;-79
2022/05/15 19:01:49;;;;;;;9.90;2.22;;;;;;;22.86;26.88;98030.78;10359636;28;20061;-79
2022/05/15 19:07:10;;;;;;;9.57;2.20;;;;;;;22.76;27.10;98033.34;10373782;28;20038;-78
2022/05/15 19:12:31;;;;;;;7.63;2.17;;;;;;;22.67;27.48;98031.72;10346345;28;20037;-79
2022/05/15 19:17:52;;;;;;;6.97;1.60;;;;;;;22.55;27.79;98030.03;10332767;28;20114;-82
2022/05/15 19:23:12;;;;;;;8.82;2.08;;;;;;;22.47;27.91;98049.00;10332520;28;20510;-83
2022/05/15 19:28:33;;;;;;;7.20;2.05;;;;;;;22.40;27.97;98047.41;10346218;28;20052;-85
2022/05/15 19:33:54;;;;;;;8.63;2.90;;;;;;;22.33;28.07;98052.22;10345624;28;20113;-82
2022/05/15 19:39:15;;;;;;;6.45;2.00;;;;;;;22.19;28.31;98058.22;10359382;28;20049;-75
2022/05/15 19:44:36;;;;;;;9.55;2.40;;;;;;;22.05;28.63;98051.44;10345927;28;20395;-76
2022/05/15 19:49:57;;;;;;;8.32;1.88;;;;;;;21.97;28.77;98051.94;10359096;28;20042;-73
2022/05/15 19:55:17;;;;;;;8.65;2.47;;;;;;;21.89;29.23;98055.25;10359035;28;20041;-76
2022/05/15 20:00:45;;;;;;;10.60;2.35;;;;;;;21.76;29.52;98059.16;10331663;28;20128;-76
2022/05/15 20:11:48;;;;;;;8.80;2.00;;;;;;;21.48;29.85;98066.84;10372006;28;20033;-73
2022/05/15 20:17:13;;;;;;;6.53;1.70;;;;;;;21.41;30.05;98063.81;10365148;28;20419;-74
2022/05/15 20:22:34;;;;;;;6.63;1.60;;;;;;;21.29;30.20;98069.16;10350505;28;20467;-75
2022/05/15 20:27:55;;;;;;;9.20;1.80;;;;;;;21.13;30.63;98065.78;10351563;28;20049;-74
2022/05/15 20:33:16;;;;;;;6.70;2.25;;;;;;;21.01;30.66;98071.06;10364273;28;20080;-74
2022/05/15 20:38:37;;;;;;;7.05;2.20;;;;;;;20.94;30.84;98075.09;10353842;28;20487;-72
2022/05/15 20:43:57;;;;;;;9.10;2.05;;;;;;;20.77;31.41;98073.88;10394331;28;20085;-74
2022/05/15 20:49:18;;;;;;;10.85;1.90;;;;;;;20.68;31.69;98077.81;10364334;28;20069;-75
2022/05/15 20:54:39;;;;;;;6.75;1.75;;;;;;;20.66;31.84;98089.81;10365596;28;20107;-73
2022/05/15 21:00:00;;;;;;;6.75;1.83;;;;;;;20.61;31.66;98084.66;10378466;28;20050;-73
2022/05/15 21:05:22;;;;;;;7.93;2.15;;;;;;;20.55;32.16;98093.69;10351775;28;20092;-73
2022/05/15 21:10:42;;;;;;;10.55;2.78;;;;;;;20.58;32.16;98083.88;10363118;28;20045;-73
2022/05/15 21:16:03;;;;;;;8.95;2.50;;;;;;;20.41;32.60;98084.69;10350207;28;20065;-72
2022/05/15 21:21:24;;;;;;;7.40;2.20;;;;;;;20.37;32.65;98078.88;10350020;28;20097;-72
2022/05/15 21:26:45;;;;;;;8.02;2.40;;;;;;;20.30;32.67;98086.44;10362974;28;20494;-72
2022/05/15 21:32:07;;;;;;;7.70;2.15;;;;;;;20.20;32.87;98080.41;10363736;28;20069;-73
2022/05/15 21:37:28;;;;;;;7.75;2.15;;;;;;;20.09;33.07;98075.78;10322647;28;20089;-72
2022/05/15 21:48:28;;;;;;;3.65;1.40;;;;;;;19.91;33.35;98070.91;10351502;28;20491;-72
2022/05/15 21:53:49;;;;;;;6.97;1.70;;;;;;;19.75;33.22;98064.66;10362439;28;20500;-73
2022/05/15 22:04:51;;;;;;;6.18;1.60;;;;;;;19.69;33.88;98051.00;10350788;28;20419;-72
2022/05/15 22:10:13;;;;;;;6.28;1.65;;;;;;;19.61;33.92;98052.81;10361394;28;20038;-72
2022/05/15 22:15:36;;;;;;;6.47;1.73;;;;;;;19.45;34.15;98058.56;10375991;28;20069;-74
2022/05/15 22:20:56;;;;;;;4.03;1.70;;;;;;;19.37;34.56;98061.09;10361522;28;20077;-72
2022/05/15 22:26:28;;;;;;;8.02;1.80;;;;;;;19.36;34.89;98059.63;10361175;28;20042;-72
2022/05/15 22:31:49;;;;;;;4.68;1.85;;;;;;;19.32;34.94;98067.97;10347521;28;20053;-73
2022/05/15 22:37:09;;;;;;;5.38;1.67;;;;;;;19.22;35.27;98067.59;10359853;28;20038;-73
2022/05/15 22:42:30;;;;;;;5.90;1.70;;;;;;;19.10;35.42;98074.22;10360961;28;20050;-73
2022/05/15 22:47:50;;;;;;;5.05;1.60;;;;;;;19.10;35.48;98081.97;10346818;28;20069;-72
2022/05/15 22:53:11;;;;;;;6.72;1.90;;;;;;;19.05;35.63;98083.94;10360786;28;20102;-73
2022/05/15 22:58:31;;;;;;;5.47;1.73;;;;;;;18.96;35.64;98079.31;10346437;28;20052;-73
2022/05/15 23:03:54;;;;;;;10.95;1.70;;;;;;;18.85;36.10;98083.84;10359728;28;20090;-72
2022/05/15 23:09:15;;;;;;;3.65;1.50;;;;;;;18.79;36.21;98083.59;10360134;28;20066;-72
2022/05/15 23:14:39;;;;;;;6.45;1.88;;;;;;;18.77;36.26;98077.84;10346065;28;20077;-72
2022/05/15 23:20:01;;;;;;;10.10;1.95;;;;;;;18.68;36.46;98067.59;10359788;28;20381;-72
2022/05/15 23:25:21;;;;;;;5.72;1.45;;;;;;;18.60;36.75;98059.47;10359595;28;20062;-72
2022/05/15 23:30:42;;;;;;;5.05;1.55;;;;;;;18.55;36.69;98062.78;10359604;28;20042;-73
2022/05/15 23:36:03;;;;;;;7.22;1.98;;;;;;;18.51;36.80;98059.78;10359548;28;20077;-72
2022/05/15 23:41:24;;;;;;;6.35;1.95;;;;;;;18.43;37.18;98059.44;10359597;28;20042;-72
2022/05/15 23:46:44;;;;;;;6.13;2.25;;;;;;;18.41;37.24;98059.34;10345535;28;20069;-73
2022/05/15 23:52:06;;;;;;;3.92;1.98;;;;;;;18.34;37.54;98058.41;10366382;28;20046;-73
2022/05/15 23:57:28;;;;;;;5.60;1.42;;;;;;;18.25;37.48;98053.78;10353467;28;20403;-73
